createdAt,value
2018-05-07T00:01:49.112Z,68.40
2018-05-07T00:04:16.786Z,68.40
2018-05-07T00:06:44.378Z,68.30
2018-05-07T00:09:12.754Z,68.50
2018-05-07T00:11:41.104Z,68.40
2018-05-07T00:14:08.658Z,68.40
2018-05-07T00:16:37.649Z,68.40
2018-05-07T00:19:05.229Z,68.50
2018-05-07T00:21:33.579Z,68.50
2018-05-07T00:24:01.182Z,68.50
2018-05-07T00:26:28.762Z,68.40
2018-05-07T00:28:56.332Z,68.50
2018-05-07T00:31:23.946Z,68.50
2018-05-07T00:33:51.507Z,68.40
2018-05-07T00:36:19.174Z,68.50
2018-05-07T00:38:46.837Z,68.70
2018-05-07T00:41:14.503Z,68.50
2018-05-07T00:43:42.162Z,68.50
2018-05-07T00:46:09.731Z,68.50
2018-05-07T00:48:38.067Z,68.50
2018-05-07T00:51:06.196Z,68.50
2018-05-07T00:53:34.528Z,68.50
2018-05-07T00:56:02.092Z,68.40
2018-05-07T00:58:29.684Z,68.50
2018-05-07T01:00:58.026Z,68.50
2018-05-07T01:03:25.587Z,68.50
2018-05-07T01:05:53.201Z,68.50
2018-05-07T01:08:20.844Z,68.50
2018-05-07T01:10:48.410Z,68.50
2018-05-07T01:13:16.749Z,68.50
2018-05-07T01:15:44.327Z,68.50
2018-05-07T01:18:11.888Z,68.50
2018-05-07T01:20:39.463Z,68.50
2018-05-07T01:23:08.158Z,68.50
2018-05-07T01:25:37.419Z,68.50
2018-05-07T01:28:04.978Z,68.50
2018-05-07T01:30:32.579Z,68.50
2018-05-07T01:33:00.957Z,68.50
2018-05-07T01:35:28.617Z,68.50
2018-05-07T01:37:56.278Z,68.60
2018-05-07T01:40:23.843Z,68.50
2018-05-07T01:42:51.416Z,68.50
2018-05-07T01:45:19.747Z,68.50
2018-05-07T01:47:47.450Z,68.50
2018-05-07T01:50:15.828Z,68.50
2018-05-07T01:52:43.490Z,68.50
2018-05-07T01:55:11.147Z,68.40
2018-05-07T01:57:38.715Z,68.20
2018-05-07T02:00:07.196Z,68.40
2018-05-07T02:02:34.865Z,68.50
2018-05-07T02:05:03.239Z,69.20
2018-05-07T02:07:30.904Z,68.50
2018-05-07T02:09:58.469Z,68.50
2018-05-07T02:12:26.840Z,68.50
2018-05-07T02:14:54.409Z,68.50
2018-05-07T02:17:22.791Z,68.50
2018-05-07T02:19:51.128Z,68.50
2018-05-07T02:22:18.703Z,68.50
2018-05-07T02:24:46.315Z,68.50
2018-05-07T02:27:13.969Z,68.50
2018-05-07T02:29:42.301Z,68.50
2018-05-07T02:32:09.896Z,68.50
2018-05-07T02:34:38.275Z,68.50
2018-05-07T02:37:06.619Z,68.50
2018-05-07T02:39:34.215Z,68.50
2018-05-07T02:42:02.590Z,68.50
2018-05-07T02:44:30.289Z,68.40
2018-05-07T02:46:57.923Z,68.50
2018-05-07T02:49:26.280Z,68.40
2018-05-07T02:51:53.857Z,68.50
2018-05-07T02:54:22.233Z,68.50
2018-05-07T02:56:49.899Z,68.50
2018-05-07T02:59:17.474Z,68.40
2018-05-07T03:01:45.819Z,68.40
2018-05-07T03:04:13.701Z,68.40
2018-05-07T03:06:41.377Z,68.40
2018-05-07T03:09:09.717Z,68.40
2018-05-07T03:11:37.829Z,68.40
2018-05-07T03:14:06.983Z,68.40
2018-05-07T03:16:34.586Z,68.40
2018-05-07T03:19:02.168Z,68.40
2018-05-07T03:21:29.735Z,68.50
2018-05-07T03:23:57.379Z,68.50
2018-05-07T03:26:25.723Z,68.50
2018-05-07T03:28:53.315Z,68.50
2018-05-07T03:31:21.689Z,68.50
2018-05-07T03:33:50.043Z,68.50
2018-05-07T03:36:17.609Z,68.50
2018-05-07T03:38:45.187Z,68.40
2018-05-07T03:41:12.856Z,68.40
2018-05-07T03:43:41.195Z,68.40
2018-05-07T03:46:08.760Z,68.40
2018-05-07T03:48:37.737Z,68.50
2018-05-07T03:51:06.982Z,68.50
2018-05-07T03:53:34.656Z,68.40
2018-05-07T03:56:02.987Z,68.50
2018-05-07T03:58:30.591Z,68.40
2018-05-07T04:00:59.111Z,68.50
2018-05-07T04:03:26.744Z,68.90
2018-05-07T04:05:55.120Z,68.40
2018-05-07T04:08:23.500Z,68.50
2018-05-07T04:10:51.856Z,68.40
2018-05-07T04:13:19.519Z,68.40
2018-05-07T04:15:47.776Z,68.40
2018-05-07T04:18:27.263Z,68.40
2018-05-07T04:21:07.624Z,68.40
2018-05-07T04:23:47.880Z,68.40
2018-05-07T04:26:16.256Z,69.40
2018-05-07T04:28:43.819Z,68.40
2018-05-07T04:31:11.384Z,68.40
2018-05-07T04:33:39.780Z,68.40
2018-05-07T04:36:08.103Z,69.30
2018-05-07T04:38:36.232Z,68.50
2018-05-07T04:41:03.871Z,68.40
2018-05-07T04:43:31.548Z,68.40
2018-05-07T04:45:59.883Z,68.50
2018-05-07T04:48:27.466Z,68.50
2018-05-07T04:50:55.035Z,68.40
2018-05-07T04:53:22.704Z,68.40
2018-05-07T04:55:51.038Z,69.10
2018-05-07T04:58:18.631Z,68.40
2018-05-07T05:00:46.303Z,68.30
2018-05-07T05:03:13.979Z,68.30
2018-05-07T05:05:42.323Z,68.20
2018-05-07T05:08:09.900Z,68.20
2018-05-07T05:10:38.596Z,68.20
2018-05-07T05:13:07.467Z,68.40
2018-05-07T05:15:35.036Z,68.40
2018-05-07T05:18:02.599Z,68.20
2018-05-07T05:20:30.171Z,68.20
2018-05-07T05:22:57.840Z,68.20
2018-05-07T05:25:26.175Z,68.20
2018-05-07T05:27:53.763Z,68.10
2018-05-07T05:30:21.330Z,68.10
2018-05-07T05:32:48.919Z,68.00
2018-05-07T05:35:17.260Z,68.00
2018-05-07T05:37:44.832Z,67.90
2018-05-07T05:40:12.531Z,68.00
2018-05-07T05:42:40.182Z,67.90
2018-05-07T05:45:08.519Z,67.80
2018-05-07T05:47:37.032Z,67.80
2018-05-07T05:50:05.456Z,67.80
2018-05-07T05:52:32.948Z,67.80
2018-05-07T05:55:00.523Z,67.70
2018-05-07T05:57:28.095Z,67.80
2018-05-07T05:59:56.427Z,67.80
2018-05-07T06:02:24.004Z,67.80
2018-05-07T06:04:51.572Z,67.60
2018-05-07T06:07:19.139Z,67.60
2018-05-07T06:09:46.814Z,67.60
2018-05-07T06:12:15.197Z,68.10
2018-05-07T06:14:43.802Z,68.00
2018-05-07T06:17:11.960Z,67.60
2018-05-07T06:19:40.289Z,67.60
2018-05-07T06:22:07.867Z,68.40
2018-05-07T06:24:36.195Z,67.60
2018-05-07T06:27:03.848Z,67.60
2018-05-07T06:29:32.223Z,67.50
2018-05-07T06:32:00.599Z,67.50
2018-05-07T06:34:29.049Z,67.60
2018-05-07T06:36:57.356Z,67.50
2018-05-07T06:39:25.021Z,67.50
2018-05-07T06:41:53.367Z,67.40
2018-05-07T06:44:20.939Z,67.40
2018-05-07T06:46:48.518Z,67.30
2018-05-07T06:49:16.875Z,67.40
2018-05-07T06:51:44.461Z,67.40
2018-05-07T06:54:12.848Z,67.30
2018-05-07T06:56:41.182Z,67.30
2018-05-07T06:59:08.791Z,67.30
2018-05-07T07:01:38.388Z,67.30
2018-05-07T07:04:07.068Z,67.30
2018-05-07T07:06:34.634Z,68.00
2018-05-07T07:09:02.213Z,67.10
2018-05-07T07:11:30.547Z,67.00
2018-05-07T07:13:58.119Z,67.00
2018-05-07T07:16:25.843Z,66.90
2018-05-07T07:18:53.399Z,66.80
2018-05-07T07:21:20.965Z,66.90
2018-05-07T07:23:48.589Z,66.90
2018-05-07T07:26:16.147Z,66.90
2018-05-07T07:28:43.709Z,66.80
2018-05-07T07:31:11.377Z,66.90
2018-05-07T07:33:39.719Z,66.70
2018-05-07T07:36:08.333Z,66.70
2018-05-07T07:38:36.990Z,66.70
2018-05-07T07:41:04.554Z,66.70
2018-05-07T07:43:32.121Z,66.80
2018-05-07T07:45:59.710Z,66.70
2018-05-07T07:48:27.281Z,66.70
2018-05-07T07:50:55.624Z,66.90
2018-05-07T07:53:23.330Z,66.90
2018-05-07T07:55:50.843Z,66.70
2018-05-07T07:58:18.415Z,66.80
2018-05-07T08:00:46.036Z,66.70
2018-05-07T08:03:13.617Z,66.90
2018-05-07T08:05:41.185Z,66.80
2018-05-07T08:08:08.780Z,66.90
2018-05-07T08:10:38.597Z,67.70
2018-05-07T08:13:07.574Z,67.00
2018-05-07T08:15:35.245Z,66.90
2018-05-07T08:18:02.807Z,66.90
2018-05-07T08:20:30.396Z,66.90
2018-05-07T08:22:57.966Z,67.00
2018-05-07T08:25:25.591Z,67.00
2018-05-07T08:27:53.256Z,67.00
2018-05-07T08:30:21.620Z,67.40
2018-05-07T08:32:49.201Z,67.00
2018-05-07T08:35:17.531Z,67.00
2018-05-07T08:37:45.096Z,67.00
2018-05-07T08:40:12.668Z,67.00
2018-05-07T08:42:40.262Z,67.00
2018-05-07T08:45:08.644Z,67.00
2018-05-07T08:47:38.303Z,67.00
2018-05-07T08:50:07.319Z,67.00
2018-05-07T08:52:34.954Z,66.90
2018-05-07T08:55:02.578Z,66.90
2018-05-07T08:57:30.947Z,67.00
2018-05-07T08:59:58.633Z,67.00
2018-05-07T09:02:27.015Z,67.00
2018-05-07T09:04:54.582Z,66.90
2018-05-07T09:07:22.221Z,67.00
2018-05-07T09:09:50.597Z,67.80
2018-05-07T09:12:18.162Z,67.00
2018-05-07T09:14:46.537Z,67.00
2018-05-07T09:17:14.103Z,67.00
2018-05-07T09:19:42.475Z,67.00
2018-05-07T09:22:10.139Z,67.00
2018-05-07T09:24:39.092Z,67.00
2018-05-07T09:27:06.617Z,66.60
2018-05-07T09:29:34.187Z,66.90
2018-05-07T09:32:01.821Z,66.90
2018-05-07T09:34:30.203Z,66.90
2018-05-07T09:36:58.602Z,66.90
2018-05-07T09:39:26.144Z,66.90
2018-05-07T09:41:54.520Z,67.00
2018-05-07T09:44:22.863Z,67.00
2018-05-07T09:46:50.437Z,66.90
2018-05-07T09:49:18.024Z,66.90
2018-05-07T09:51:46.395Z,67.00
2018-05-07T09:54:14.098Z,66.90
2018-05-07T09:56:53.730Z,66.90
2018-05-07T09:59:22.092Z,66.90
2018-05-07T10:01:50.424Z,67.00
2018-05-07T10:04:18.022Z,67.00
2018-05-07T10:06:45.688Z,66.90
2018-05-07T10:09:13.272Z,66.90
2018-05-07T10:11:41.627Z,66.90
2018-05-07T10:14:09.194Z,66.90
2018-05-07T10:16:38.808Z,67.60
2018-05-07T10:19:08.520Z,66.80
2018-05-07T10:21:38.095Z,66.80
2018-05-07T10:24:06.246Z,66.70
2018-05-07T10:26:33.808Z,66.80
2018-05-07T10:29:01.439Z,66.70
2018-05-07T10:31:29.011Z,66.70
2018-05-07T10:33:56.644Z,66.70
2018-05-07T10:36:25.025Z,66.60
2018-05-07T10:38:53.393Z,66.60
2018-05-07T10:41:21.000Z,66.60
2018-05-07T10:43:49.336Z,66.50
2018-05-07T10:46:16.920Z,66.60
2018-05-07T10:48:45.264Z,66.60
2018-05-07T10:51:12.827Z,66.50
2018-05-07T10:53:40.400Z,66.60
2018-05-07T10:56:08.021Z,66.50
2018-05-07T10:58:36.553Z,66.60
2018-05-07T11:01:04.883Z,66.40
2018-05-07T11:03:32.453Z,66.40
2018-05-07T11:06:00.047Z,66.40
2018-05-07T11:08:27.708Z,66.40
2018-05-07T11:10:55.276Z,66.30
2018-05-07T11:13:22.843Z,66.30
2018-05-07T11:15:51.214Z,66.50
2018-05-07T11:18:18.796Z,66.40
2018-05-07T11:20:46.363Z,66.30
2018-05-07T11:23:13.997Z,66.30
2018-05-07T11:25:41.576Z,66.40
2018-05-07T11:28:09.916Z,66.40
2018-05-07T11:30:38.736Z,66.40
2018-05-07T11:33:08.396Z,66.30
2018-05-07T11:35:37.116Z,66.30
2018-05-07T11:38:04.791Z,66.20
2018-05-07T11:40:33.203Z,66.20
2018-05-07T11:43:00.773Z,66.20
2018-05-07T11:45:28.396Z,66.20
2018-05-07T11:47:56.064Z,66.30
2018-05-07T11:50:24.396Z,66.30
2018-05-07T11:52:51.959Z,66.30
2018-05-07T11:55:19.535Z,66.20
2018-05-07T11:57:47.099Z,66.20
2018-05-07T12:00:14.664Z,66.20
2018-05-07T12:02:42.265Z,66.20
2018-05-07T12:05:09.908Z,66.20
2018-05-07T12:07:38.283Z,66.20
2018-05-07T12:10:06.864Z,66.20
2018-05-07T12:12:34.535Z,66.20
2018-05-07T12:15:02.200Z,66.10
2018-05-07T12:17:30.660Z,66.10
2018-05-07T12:19:58.343Z,66.10
2018-05-07T12:22:26.723Z,65.50
2018-05-07T12:24:54.288Z,66.10
2018-05-07T12:27:22.659Z,66.20
2018-05-07T12:29:50.334Z,66.20
2018-05-07T12:32:18.666Z,66.10
2018-05-07T12:34:46.271Z,66.10
2018-05-07T12:37:14.649Z,66.20
2018-05-07T12:39:42.974Z,65.50
2018-05-07T12:42:10.544Z,66.10
2018-05-07T12:44:38.119Z,66.10
2018-05-07T12:47:06.241Z,66.10
2018-05-07T12:49:34.604Z,66.10
2018-05-07T12:52:02.938Z,66.10
2018-05-07T12:54:30.507Z,66.10
2018-05-07T12:56:58.100Z,66.10
2018-05-07T12:59:25.776Z,66.10
2018-05-07T13:01:54.125Z,66.00
2018-05-07T13:04:21.690Z,66.80
2018-05-07T13:06:50.031Z,65.60
2018-05-07T13:09:17.614Z,66.10
2018-05-07T13:11:45.184Z,66.00
2018-05-07T13:14:12.755Z,66.00
2018-05-07T13:16:40.351Z,65.90
2018-05-07T13:19:07.926Z,66.00
2018-05-07T13:21:36.140Z,66.00
2018-05-07T13:24:03.708Z,66.00
2018-05-07T13:26:31.291Z,66.00
2018-05-07T13:28:58.985Z,65.90
2018-05-07T13:31:26.637Z,66.00
2018-05-07T13:33:54.283Z,66.00
2018-05-07T13:36:22.661Z,66.00
2018-05-07T13:38:51.048Z,66.10
2018-05-07T13:41:19.388Z,66.90
2018-05-07T13:43:46.971Z,66.00
2018-05-07T13:46:14.645Z,66.10
2018-05-07T13:48:43.029Z,66.10
2018-05-07T13:51:11.396Z,66.20
2018-05-07T13:53:38.974Z,66.10
2018-05-07T13:56:08.475Z,66.10
2018-05-07T13:58:36.817Z,66.10
2018-05-07T14:01:04.409Z,66.10
2018-05-07T14:03:31.987Z,66.10
2018-05-07T14:06:00.351Z,66.10
2018-05-07T14:08:27.982Z,66.10
2018-05-07T14:10:55.579Z,66.10
2018-05-07T14:13:23.910Z,66.20
2018-05-07T14:15:51.514Z,66.20
2018-05-07T14:18:19.183Z,66.20
2018-05-07T14:20:47.519Z,66.20
2018-05-07T14:23:15.121Z,66.20
2018-05-07T14:25:42.695Z,66.20
2018-05-07T14:28:11.036Z,66.30
2018-05-07T14:30:38.625Z,66.10
2018-05-07T14:33:07.816Z,66.20
2018-05-07T14:35:35.384Z,66.30
2018-05-07T14:38:03.765Z,66.50
2018-05-07T14:40:32.144Z,66.30
2018-05-07T14:43:00.474Z,66.70
2018-05-07T14:45:28.049Z,66.20
2018-05-07T14:47:55.649Z,66.20
2018-05-07T14:50:24.044Z,66.30
2018-05-07T14:52:51.587Z,66.30
2018-05-07T14:55:22.879Z,66.40
2018-05-07T14:57:50.452Z,66.30
2018-05-07T15:00:18.056Z,66.30
2018-05-07T15:02:45.716Z,66.40
2018-05-07T15:05:13.399Z,66.40
2018-05-07T15:07:41.739Z,66.40
2018-05-07T15:10:10.128Z,66.50
2018-05-07T15:12:37.779Z,66.40
2018-05-07T15:15:06.202Z,66.40
2018-05-07T15:17:34.571Z,66.40
2018-05-07T15:20:02.923Z,66.40
2018-05-07T15:22:30.613Z,66.40
2018-05-07T15:24:58.953Z,66.50
2018-05-07T15:27:26.647Z,66.50
2018-05-07T15:29:54.578Z,66.50
2018-05-07T15:32:22.271Z,66.90
2018-05-07T15:34:49.869Z,66.50
2018-05-07T15:37:17.486Z,66.50
2018-05-07T15:39:45.164Z,66.50
2018-05-07T15:42:13.552Z,66.60
2018-05-07T15:44:41.130Z,66.60
2018-05-07T15:47:09.468Z,66.70
2018-05-07T15:49:37.266Z,66.70
2018-05-07T15:52:06.375Z,66.50
2018-05-07T15:54:34.728Z,66.50
2018-05-07T15:57:02.326Z,66.60
2018-05-07T15:59:30.544Z,66.70
2018-05-07T16:01:58.109Z,66.70
2018-05-07T16:04:25.699Z,66.70
2018-05-07T16:06:54.038Z,66.70
2018-05-07T16:09:21.641Z,66.70
2018-05-07T16:11:50.024Z,66.80
2018-05-07T16:14:18.396Z,66.80
2018-05-07T16:16:46.739Z,66.80
2018-05-07T16:19:14.309Z,66.80
2018-05-07T16:21:41.931Z,66.80
2018-05-07T16:24:10.399Z,67.00
2018-05-07T16:26:38.756Z,67.00
2018-05-07T16:29:07.135Z,67.00
2018-05-07T16:31:36.154Z,67.80
2018-05-07T16:34:03.775Z,66.90
2018-05-07T16:36:31.365Z,66.90
2018-05-07T16:38:59.703Z,67.20
2018-05-07T16:41:28.110Z,67.10
2018-05-07T16:43:55.728Z,67.10
2018-05-07T16:46:24.033Z,67.10
2018-05-07T16:48:51.660Z,67.20
2018-05-07T16:51:20.001Z,67.20
2018-05-07T16:53:48.337Z,67.20
2018-05-07T16:56:15.943Z,67.10
2018-05-07T16:58:44.285Z,67.20
2018-05-07T17:01:11.857Z,67.20
2018-05-07T17:03:39.435Z,67.30
2018-05-07T17:06:08.132Z,67.20
2018-05-07T17:08:37.195Z,67.30
2018-05-07T17:11:04.758Z,67.30
2018-05-07T17:13:32.384Z,67.30
2018-05-07T17:16:01.245Z,67.30
2018-05-07T17:18:29.588Z,67.50
2018-05-07T17:20:58.265Z,67.40
2018-05-07T17:23:27.014Z,67.50
2018-05-07T17:25:54.747Z,67.50
2018-05-07T17:28:22.339Z,67.40
2018-05-07T17:30:50.699Z,67.50
2018-05-07T17:33:19.035Z,66.90
2018-05-07T17:35:46.940Z,67.60
2018-05-07T17:38:14.627Z,67.60
2018-05-07T17:40:43.096Z,67.60
2018-05-07T17:43:11.484Z,67.70
2018-05-07T17:46:02.624Z,67.70
2018-05-07T17:48:42.142Z,68.40
2018-05-07T17:51:10.475Z,67.60
2018-05-07T17:53:38.046Z,67.60
2018-05-07T17:56:06.264Z,67.60
2018-05-07T17:58:34.619Z,67.80
2018-05-07T18:01:02.201Z,67.80
2018-05-07T18:03:29.772Z,67.30
2018-05-07T18:05:57.403Z,67.80
2018-05-07T18:08:26.508Z,67.80
2018-05-07T18:10:54.941Z,67.80
2018-05-07T18:13:23.268Z,67.80
2018-05-07T18:15:51.639Z,67.80
2018-05-07T18:18:19.206Z,67.20
2018-05-07T18:20:46.880Z,65.10
2018-05-07T18:23:15.213Z,65.90
2018-05-07T18:25:42.812Z,66.00
2018-05-07T18:28:11.575Z,66.20
2018-05-07T18:30:39.464Z,66.20
2018-05-07T18:33:08.151Z,66.40
2018-05-07T18:35:36.249Z,67.30
2018-05-07T18:38:04.671Z,66.70
2018-05-07T18:40:32.953Z,66.80
2018-05-07T18:43:00.553Z,67.60
2018-05-07T18:45:29.049Z,67.00
2018-05-07T18:47:57.417Z,67.10
2018-05-07T18:50:25.752Z,67.10
2018-05-07T18:52:53.327Z,67.10
2018-05-07T18:55:20.907Z,67.10
2018-05-07T18:57:48.576Z,67.20
2018-05-07T19:00:16.952Z,67.60
2018-05-07T19:02:45.339Z,67.40
2018-05-07T19:05:13.676Z,67.40
2018-05-07T19:07:41.244Z,67.40
2018-05-07T19:10:08.808Z,67.40
2018-05-07T19:12:37.989Z,67.40
2018-05-07T19:15:06.640Z,67.50
2018-05-07T19:17:34.208Z,67.60
2018-05-07T19:20:01.845Z,67.60
2018-05-07T19:22:30.195Z,68.30
2018-05-07T19:24:57.783Z,67.50
2018-05-07T19:27:25.444Z,67.50
2018-05-07T19:29:53.122Z,67.60
2018-05-07T19:32:21.489Z,67.60
2018-05-07T19:34:49.156Z,67.60
2018-05-07T19:37:18.056Z,67.60
2018-05-07T19:39:46.391Z,67.70
2018-05-07T19:42:13.982Z,67.70
2018-05-07T19:44:42.364Z,68.40
2018-05-07T19:47:09.936Z,67.70
2018-05-07T19:49:38.276Z,67.70
2018-05-07T19:52:06.523Z,67.80
2018-05-07T19:54:34.139Z,67.70
2018-05-07T19:57:01.704Z,67.70
2018-05-07T19:59:29.277Z,67.80
2018-05-07T20:01:57.645Z,67.90
2018-05-07T20:04:25.302Z,67.80
2018-05-07T20:06:52.866Z,67.90
2018-05-07T20:09:20.524Z,67.90
2018-05-07T20:11:48.109Z,67.80
2018-05-07T20:14:16.565Z,67.80
2018-05-07T20:16:44.856Z,67.90
2018-05-07T20:19:13.183Z,67.90
2018-05-07T20:21:40.797Z,67.90
2018-05-07T20:24:09.157Z,68.00
2018-05-07T20:26:36.731Z,67.90
2018-05-07T20:29:04.355Z,67.90
2018-05-07T20:31:32.665Z,67.90
2018-05-07T20:34:00.227Z,68.00
2018-05-07T20:36:27.890Z,68.00
2018-05-07T20:38:56.089Z,67.90
2018-05-07T20:41:24.423Z,68.10
2018-05-07T20:43:52.058Z,67.90
2018-05-07T20:46:19.627Z,68.00
2018-05-07T20:48:47.201Z,67.90
2018-05-07T20:51:14.803Z,68.00
2018-05-07T20:53:43.152Z,68.60
2018-05-07T20:56:10.723Z,68.10
2018-05-07T20:58:38.298Z,68.10
2018-05-07T21:01:06.526Z,68.10
2018-05-07T21:03:34.132Z,68.10
2018-05-07T21:06:01.806Z,68.10
2018-05-07T21:08:30.278Z,69.00
2018-05-07T21:10:58.536Z,68.10
2018-05-07T21:13:26.112Z,68.10
2018-05-07T21:15:53.674Z,68.10
2018-05-07T21:18:21.256Z,68.10
2018-05-07T21:20:48.813Z,68.10
2018-05-07T21:23:16.391Z,68.20
2018-05-07T21:25:43.972Z,68.10
2018-05-07T21:28:11.545Z,68.20
2018-05-07T21:30:39.118Z,68.20
2018-05-07T21:33:06.704Z,68.20
2018-05-07T21:35:34.309Z,68.10
2018-05-07T21:38:01.884Z,68.20
2018-05-07T21:40:29.489Z,68.10
2018-05-07T21:42:57.060Z,68.10
2018-05-07T21:45:24.684Z,68.20
2018-05-07T21:47:52.250Z,68.20
2018-05-07T21:50:19.865Z,68.20
2018-05-07T21:52:47.429Z,68.20
2018-05-07T21:55:14.988Z,68.20
2018-05-07T21:57:42.572Z,68.20
2018-05-07T22:00:10.138Z,68.20
2018-05-07T22:02:37.774Z,68.30
2018-05-07T22:05:05.332Z,68.20
2018-05-07T22:07:32.896Z,68.30
2018-05-07T22:10:00.482Z,68.20
2018-05-07T22:12:28.092Z,68.20
2018-05-07T22:14:55.726Z,68.30
2018-05-07T22:17:23.227Z,68.30
2018-05-07T22:19:50.800Z,68.30
2018-05-07T22:22:18.360Z,68.30
2018-05-07T22:24:45.936Z,68.30
2018-05-07T22:27:13.516Z,68.30
2018-05-07T22:29:41.092Z,68.20
2018-05-07T22:32:08.723Z,68.20
2018-05-07T22:34:36.294Z,68.40
2018-05-07T22:37:03.870Z,68.30
2018-05-07T22:39:31.450Z,68.30
2018-05-07T22:41:59.016Z,68.30
2018-05-07T22:44:26.593Z,68.30
2018-05-07T22:46:54.152Z,68.40
2018-05-07T22:49:21.720Z,68.20
2018-05-07T22:51:49.297Z,68.30
2018-05-07T22:54:16.865Z,68.30
2018-05-07T22:56:44.488Z,68.30
2018-05-07T22:59:12.015Z,68.30
2018-05-07T23:01:39.590Z,68.30
2018-05-07T23:04:07.148Z,68.30
2018-05-07T23:23:53.600Z,68.50
2018-05-07T23:26:21.172Z,68.30
2018-05-07T23:28:48.743Z,68.20
2018-05-07T23:31:16.333Z,68.30
2018-05-07T23:33:43.893Z,68.30
2018-05-07T23:36:11.456Z,68.30
2018-05-07T23:55:57.376Z,68.40
2018-05-07T23:58:24.941Z,68.40
